TORONTO ISLAND, Ontario

6:49 PM EDT on 三月 29, 2017 (GMT -0400)
Toronto | | Change Station
発令中の注意報: Special Weather Statement

高度 0 ft 43.62 °N, 79.38 °W | Updated 4 minutes ago

Clear
50.5 °F
体感気温 50.5 °F
1.9
風 変数 風 から
Gusts 3.1 Mph

今日
高い -- | 低 -- °F
--% 降水確率
昨日
高い -- | 低 -- °F
Precip. -- インチ
気圧 30.30 インチ
視程 9.0 マイル

露点温度 45 °F
湿度 82%
降水 利用不可。
積雪深 利用不可。
7:04 AM 7:41 PM
三日月, 5% visible
METAR CYTZ 292200Z AUTO 07004KT 9SM CLR 06/M02 A3028 RMK SLP259
気圧 30.30 インチ
視程 9.0 マイル

露点温度 45 °F
湿度 82%
降水 利用不可。
積雪深 利用不可。
7:04 AM 7:41 PM
三日月, 5% visible
METAR CYTZ 292200Z AUTO 07004KT 9SM CLR 06/M02 A3028 RMK SLP259

Get Severe Weather Alerts

Thanks for signing up!

Be on the lookout for a verification email in your inbox.

You'll start receiving the daily forecast at 8 AM.

×

10-Day Weather Forecast

Almanac

天文

Mar. 29, 2017 入り
実時間
常用薄明
航海薄明
天文薄明
可視光の長さ
可照時間
Tomorrow will be .
, % of the Moon is Illuminated

今日の極値

Country Highs Country Lows

Community

WunderPhotos

Upload Photos

1,962,540 写真がアップロードされました!

WunderBlog® & News

Nearby

空気品質

  空気品質 大気質指数 汚染物質
Not available.

積雪深

Station Depth 高度

地震活動

Distance Mag. Time & Date
Minimum magnitude displayed is 2.5.

地震活動

Distance Mag. Time & Date
Minimum magnitude displayed is 2.5.

沿岸の水温

地名 気温

Stations

最寄りの気象観測所

観測所位置 温度 体感気温(寒さ) 露点温度 湿度 Precip. 高度 更新日時 タイプする
                   

Watches & Warnings

Special Weather Statement
Issued: Environment Canada
Special Weather Statement issued by Environment.  01:05 PM EDT Wednesday 29 March 2017.
A developing low pressure system over Kansas will track towards Southern Ontario in the coming days.

Precipitation associated with this system is expected to reach areas southwest of a line from Wingham-Blyth-Northern Huron County to Hamilton near noon Thursday and then spread into rest of the regions late Thursday afternoon. It will likely begin as snow mixed with rain, then change over to rain by Thursday evening. Periods of rain will then continue through much of Friday before tapering off Friday night. Total rainfall amounts in the 15 to 25 mm range are possible. 
Risk of freezing rain is also possibly late Thursday before the mixed precipitation changes to rain. 

Travel may become hazardous due to the freezing rain on Thursday night.

###

Please continue to monitor alerts and forecasts issued by Environment Canada. To report severe weather, send an email to ec.cpio-tempetes-ospc-storms.ec@canada.ca or tweet reports using #ONStorm.
expires_epoch:1490850355